Time;durP1;ratioP1;P1;durP2;ratioP2;P2;SDS_P1;SDS_P2;PMS_P1;PMS_P2;Temp;Humidity;BMP_temperature;BMP_pressure;BME280_temperature;BME280_humidity;BME280_pressure;Samples;Min_cycle;Max_cycle;Signal;HPM_P1;HPM_P2
2021/04/23 00:01:10;;;;;;;;;;;14.90;65.10;;;;;;5012961;28;74597;-84
2021/04/23 00:03:45;;;;;;;;;;;14.80;65.30;;;;;;5012140;28;78054;-83
2021/04/23 00:06:10;;;;;;;;;;;14.80;65.20;;;;;;5011902;28;77053;-76
2021/04/23 00:08:36;;;;;;;;;;;14.70;65.30;;;;;;5012400;28;77298;-77
2021/04/23 00:11:04;;;;;;;;;;;14.70;65.50;;;;;;5013175;28;75618;-81
2021/04/23 00:13:30;;;;;;;;;;;14.70;65.60;;;;;;5011879;28;76680;-78
2021/04/23 00:15:56;;;;;;;;;;;14.70;65.50;;;;;;5011954;28;76561;-78
2021/04/23 00:18:21;;;;;;;;;;;14.70;65.60;;;;;;5013673;28;74535;-83
2021/04/23 00:20:47;;;;;;;;;;;14.70;65.90;;;;;;5012689;28;78397;-81
2021/04/23 00:23:13;;;;;;;;;;;14.70;65.80;;;;;;5014321;28;76387;-80
2021/04/23 00:25:40;;;;;;;;;;;14.70;65.80;;;;;;5013432;28;77957;-81
2021/04/23 00:28:08;;;;;;;;;;;14.70;65.90;;;;;;5015275;28;75053;-78
2021/04/23 00:30:35;;;;;;;;;;;14.70;65.90;;;;;;5013238;28;76338;-80
2021/04/23 00:33:02;;;;;;;;;;;14.70;66.10;;;;;;5011916;28;78213;-78
2021/04/23 00:35:29;;;;;;;;;;;14.70;66.20;;;;;;5013360;28;75908;-79
2021/04/23 00:37:55;;;;;;;;;;;14.70;66.20;;;;;;5013131;28;74911;-79
2021/04/23 00:40:25;;;;;;;;;;;14.70;66.20;;;;;;5010762;28;79158;-80
2021/04/23 00:42:51;;;;;;;;;;;14.60;65.80;;;;;;5012972;28;75530;-78
2021/04/23 00:45:18;;;;;;;;;;;14.60;65.70;;;;;;5011030;28;75534;-78
2021/04/23 00:47:45;;;;;;;;;;;14.50;65.70;;;;;;5011382;28;77075;-78
2021/04/23 00:50:11;;;;;;;;;;;14.50;65.80;;;;;;5011507;28;77374;-85
2021/04/23 00:52:37;;;;;;;;;;;14.50;65.70;;;;;;5012283;28;75748;-79
2021/04/23 00:55:04;;;;;;;;;;;14.50;65.80;;;;;;5010785;28;77121;-78
2021/04/23 00:57:30;;;;;;;;;;;14.50;65.70;;;;;;5012483;28;75346;-84
2021/04/23 00:59:55;;;;;;;;;;;14.50;65.50;;;;;;5012902;28;74693;-83
2021/04/23 01:02:21;;;;;;;;;;;14.60;65.50;;;;;;5011525;28;78360;-77
2021/04/23 01:04:48;;;;;;;;;;;14.50;65.10;;;;;;5016388;28;78125;-85
2021/04/23 01:07:14;;;;;;;;;;;14.50;65.00;;;;;;5018314;28;76202;-81
2021/04/23 01:09:40;;;;;;;;;;;14.40;65.00;;;;;;5021305;28;75470;-78
2021/04/23 01:12:06;;;;;;;;;;;14.40;65.00;;;;;;5013734;28;75113;-81
2021/04/23 01:14:32;;;;;;;;;;;14.30;65.20;;;;;;5012285;28;75975;-77
2021/04/23 01:16:58;;;;;;;;;;;14.30;65.30;;;;;;5011376;28;78035;-80
2021/04/23 01:19:25;;;;;;;;;;;14.20;65.30;;;;;;5014334;28;75168;-84
2021/04/23 01:21:51;;;;;;;;;;;14.20;65.20;;;;;;5011584;28;78315;-79
2021/04/23 01:24:18;;;;;;;;;;;14.10;65.40;;;;;;5010813;28;77085;-76
2021/04/23 01:26:46;;;;;;;;;;;14.00;65.70;;;;;;5010982;28;74459;-78
2021/04/23 01:29:13;;;;;;;;;;;14.00;65.70;;;;;;5010936;28;76468;-77
2021/04/23 01:31:40;;;;;;;;;;;13.90;65.90;;;;;;5010470;28;76320;-76
2021/04/23 01:34:10;;;;;;;;;;;13.90;65.90;;;;;;5012242;28;75115;-79
2021/04/23 01:36:36;;;;;;;;;;;13.90;66.10;;;;;;5010423;28;77739;-80
2021/04/23 01:39:06;;;;;;;;;;;13.90;66.00;;;;;;5010674;28;78552;-81
2021/04/23 01:41:31;;;;;;;;;;;13.80;66.30;;;;;;5012406;28;74432;-82
2021/04/23 01:43:57;;;;;;;;;;;13.70;66.50;;;;;;5010780;28;76631;-81
2021/04/23 01:46:22;;;;;;;;;;;13.70;66.50;;;;;;5013191;28;74763;-82
2021/04/23 01:48:48;;;;;;;;;;;13.70;66.40;;;;;;5011712;28;78250;-81
2021/04/23 01:51:14;;;;;;;;;;;13.60;66.40;;;;;;5011862;28;77785;-82
2021/04/23 01:53:41;;;;;;;;;;;13.60;66.40;;;;;;5010140;28;77846;-78
2021/04/23 01:56:07;;;;;;;;;;;13.50;66.70;;;;;;5010370;28;74643;-77
2021/04/23 01:58:34;;;;;;;;;;;13.50;66.90;;;;;;5010114;28;77918;-77
2021/04/23 02:01:00;;;;;;;;;;;13.50;67.00;;;;;;5011376;28;75840;-76
2021/04/23 02:03:25;;;;;;;;;;;13.50;67.10;;;;;;5010048;28;75509;-78
2021/04/23 02:05:53;;;;;;;;;;;13.50;67.00;;;;;;5010632;28;77668;-78
2021/04/23 02:08:21;;;;;;;;;;;13.50;67.10;;;;;;5013587;28;77359;-76
2021/04/23 02:10:49;;;;;;;;;;;13.60;67.00;;;;;;5013555;28;77952;-76
2021/04/23 02:13:18;;;;;;;;;;;13.60;66.80;;;;;;5015288;28;75040;-78
2021/04/23 02:15:43;;;;;;;;;;;13.60;66.80;;;;;;5013580;28;77519;-79
2021/04/23 02:18:09;;;;;;;;;;;13.70;66.70;;;;;;5013288;28;75659;-78
2021/04/23 02:20:36;;;;;;;;;;;13.70;66.60;;;;;;5013372;28;75915;-77
2021/04/23 02:23:03;;;;;;;;;;;13.70;66.70;;;;;;5015857;28;75038;-76
2021/04/23 02:25:32;;;;;;;;;;;13.80;66.70;;;;;;5015173;28;75064;-77
2021/04/23 02:27:58;;;;;;;;;;;13.80;66.60;;;;;;5014896;28;75055;-76
2021/04/23 02:30:28;;;;;;;;;;;13.90;66.40;;;;;;5013319;28;76606;-77
2021/04/23 02:32:54;;;;;;;;;;;13.90;66.50;;;;;;5013218;28;77782;-78
2021/04/23 02:35:21;;;;;;;;;;;13.90;66.40;;;;;;5014180;28;74493;-76
2021/04/23 02:37:47;;;;;;;;;;;13.90;66.40;;;;;;5014755;28;74413;-76
2021/04/23 02:40:14;;;;;;;;;;;13.90;66.60;;;;;;5015330;28;75100;-76
2021/04/23 02:42:41;;;;;;;;;;;13.90;66.50;;;;;;5013717;28;78329;-77
2021/04/23 02:45:07;;;;;;;;;;;13.90;66.70;;;;;;5014203;28;77449;-74
2021/04/23 02:47:33;;;;;;;;;;;13.80;66.60;;;;;;5013759;28;76875;-74
2021/04/23 02:49:59;;;;;;;;;;;13.80;66.80;;;;;;5013498;28;77634;-73
2021/04/23 02:52:25;;;;;;;;;;;13.80;66.90;;;;;;5013150;28;78195;-80
2021/04/23 02:54:50;;;;;;;;;;;13.80;66.90;;;;;;5011049;28;74541;-81
2021/04/23 02:57:17;;;;;;;;;;;13.70;66.90;;;;;;5014185;28;75199;-76
2021/04/23 02:59:43;;;;;;;;;;;13.70;66.90;;;;;;5013103;28;77605;-82
2021/04/23 03:02:08;;;;;;;;;;;13.60;67.10;;;;;;5012554;28;77155;-83
2021/04/23 03:04:34;;;;;;;;;;;13.50;67.20;;;;;;5013062;28;77309;-79
2021/04/23 03:07:00;;;;;;;;;;;13.50;67.40;;;;;;5013225;28;77370;-78
2021/04/23 03:09:26;;;;;;;;;;;13.50;67.50;;;;;;5013256;28;77993;-80
2021/04/23 03:11:51;;;;;;;;;;;13.40;67.60;;;;;;5015149;28;75149;-76
2021/04/23 03:14:17;;;;;;;;;;;13.40;67.80;;;;;;5012827;28;78228;-80
2021/04/23 03:16:43;;;;;;;;;;;13.30;67.90;;;;;;5014441;28;75152;-77
2021/04/23 03:19:16;;;;;;;;;;;13.30;68.00;;;;;;5012236;28;75816;-75
2021/04/23 03:21:42;;;;;;;;;;;13.20;68.20;;;;;;5014220;28;75210;-77
2021/04/23 03:24:09;;;;;;;;;;;13.20;68.40;;;;;;5013803;28;75115;-74
2021/04/23 03:26:34;;;;;;;;;;;13.10;68.40;;;;;;5012570;28;75296;-74
2021/04/23 03:29:00;;;;;;;;;;;13.10;68.60;;;;;;5012662;28;75430;-73
2021/04/23 03:31:26;;;;;;;;;;;13.10;68.80;;;;;;5012240;28;76473;-74
2021/04/23 03:33:51;;;;;;;;;;;13.10;68.90;;;;;;5014017;28;75223;-77
2021/04/23 03:36:17;;;;;;;;;;;13.10;68.90;;;;;;5014298;28;74973;-72
2021/04/23 03:38:44;;;;;;;;;;;13.00;69.00;;;;;;5014368;28;77878;-80
2021/04/23 03:41:11;;;;;;;;;;;13.00;69.20;;;;;;5014925;28;74627;-76
2021/04/23 03:43:37;;;;;;;;;;;13.00;69.20;;;;;;5013737;28;75843;-79
2021/04/23 03:46:03;;;;;;;;;;;13.00;69.30;;;;;;5012511;28;78309;-82
2021/04/23 03:48:29;;;;;;;;;;;13.00;69.20;;;;;;5011828;28;75599;-80
2021/04/23 03:50:54;;;;;;;;;;;13.10;69.30;;;;;;5013917;28;75693;-80
2021/04/23 03:53:20;;;;;;;;;;;13.10;69.30;;;;;;5012731;28;76971;-77
2021/04/23 03:55:50;;;;;;;;;;;13.20;69.20;;;;;;5012554;28;77085;-81
2021/04/23 03:58:18;;;;;;;;;;;13.20;69.20;;;;;;5012438;28;77769;-78
2021/04/23 04:00:45;;;;;;;;;;;13.20;69.00;;;;;;5011284;28;75258;-75
2021/04/23 04:03:11;;;;;;;;;;;13.30;68.90;;;;;;5013584;28;74664;-79
2021/04/23 04:05:37;;;;;;;;;;;13.30;68.70;;;;;;5013553;28;74707;-76
2021/04/23 04:08:05;;;;;;;;;;;13.40;68.60;;;;;;5011744;28;77227;-80
2021/04/23 04:10:31;;;;;;;;;;;13.40;68.50;;;;;;5010848;28;75976;-77
2021/04/23 04:12:57;;;;;;;;;;;13.40;68.40;;;;;;5011393;28;77567;-73
2021/04/23 04:15:24;;;;;;;;;;;13.30;68.50;;;;;;5011747;28;76092;-77
2021/04/23 04:17:50;;;;;;;;;;;13.40;68.40;;;;;;5013097;28;75436;-76
2021/04/23 04:20:16;;;;;;;;;;;13.30;68.50;;;;;;5011994;28;76603;-79
2021/04/23 04:22:42;;;;;;;;;;;13.30;68.60;;;;;;5011312;28;77782;-77
2021/04/23 04:25:11;;;;;;;;;;;13.40;68.60;;;;;;5013253;28;75042;-76
2021/04/23 04:27:36;;;;;;;;;;;13.40;68.50;;;;;;5011729;28;77197;-75
2021/04/23 04:30:03;;;;;;;;;;;13.40;68.40;;;;;;5012088;28;75101;-76
2021/04/23 04:32:29;;;;;;;;;;;13.40;68.30;;;;;;5011553;28;75886;-77
2021/04/23 04:34:55;;;;;;;;;;;13.40;68.10;;;;;;5011558;28;75601;-77
2021/04/23 04:37:21;;;;;;;;;;;13.40;68.10;;;;;;5012986;28;75451;-78
2021/04/23 04:39:46;;;;;;;;;;;13.40;68.20;;;;;;5012946;28;75109;-77
2021/04/23 04:42:12;;;;;;;;;;;13.40;68.10;;;;;;5011514;28;76425;-77
2021/04/23 04:44:38;;;;;;;;;;;13.40;68.00;;;;;;5011767;28;78150;-76
2021/04/23 04:47:03;;;;;;;;;;;13.50;68.00;;;;;;5011292;28;75981;-77
2021/04/23 04:49:29;;;;;;;;;;;13.40;67.90;;;;;;5012769;28;75009;-77
2021/04/23 04:51:55;;;;;;;;;;;13.40;67.90;;;;;;5010765;28;78816;-77
2021/04/23 04:54:21;;;;;;;;;;;13.40;67.90;;;;;;5012531;28;74951;-77
2021/04/23 04:56:46;;;;;;;;;;;13.40;67.80;;;;;;5010829;28;77359;-76
2021/04/23 04:59:13;;;;;;;;;;;13.40;67.80;;;;;;5012683;28;75238;-77
2021/04/23 05:01:39;;;;;;;;;;;13.40;67.90;;;;;;5010638;28;75264;-77
2021/04/23 05:04:04;;;;;;;;;;;13.40;68.00;;;;;;5012462;28;74541;-77
2021/04/23 05:06:30;;;;;;;;;;;13.30;67.90;;;;;;5010770;28;75380;-76
2021/04/23 05:08:55;;;;;;;;;;;13.30;68.10;;;;;;5010742;28;77281;-78
2021/04/23 05:11:21;;;;;;;;;;;13.30;68.20;;;;;;5010970;28;76559;-77
2021/04/23 05:13:47;;;;;;;;;;;13.40;68.20;;;;;;5011365;28;77030;-77
2021/04/23 05:16:12;;;;;;;;;;;13.30;68.00;;;;;;5010745;28;77159;-78
2021/04/23 05:18:38;;;;;;;;;;;13.40;68.00;;;;;;5012682;28;75124;-77
2021/04/23 05:21:05;;;;;;;;;;;13.40;68.00;;;;;;5012526;28;75105;-77
2021/04/23 05:23:30;;;;;;;;;;;13.40;67.90;;;;;;5012429;28;75516;-78
2021/04/23 05:25:56;;;;;;;;;;;13.30;67.80;;;;;;5011944;28;74558;-80
2021/04/23 05:28:22;;;;;;;;;;;13.30;67.60;;;;;;5011740;28;76756;-79
2021/04/23 05:30:48;;;;;;;;;;;13.30;67.50;;;;;;5011107;28;77282;-79
2021/04/23 05:33:13;;;;;;;;;;;13.20;67.70;;;;;;5012091;28;75366;-80
2021/04/23 05:35:39;;;;;;;;;;;13.20;67.70;;;;;;5016025;28;75040;-79
2021/04/23 05:38:05;;;;;;;;;;;13.10;67.90;;;;;;5015267;28;76222;-72
2021/04/23 05:40:36;;;;;;;;;;;13.10;68.00;;;;;;5013491;28;78037;-74
2021/04/23 05:43:05;;;;;;;;;;;13.10;68.00;;;;;;5019126;28;76297;-70
2021/04/23 05:45:30;;;;;;;;;;;13.00;68.00;;;;;;5033494;28;77682;-72
2021/04/23 05:47:56;;;;;;;;;;;13.10;68.00;;;;;;5035413;28;75866;-69
2021/04/23 05:50:22;;;;;;;;;;;13.00;68.00;;;;;;5015865;28;76688;-72
2021/04/23 05:52:49;;;;;;;;;;;13.00;68.10;;;;;;5013886;28;77276;-70
2021/04/23 05:55:16;;;;;;;;;;;13.00;68.00;;;;;;5021875;28;75331;-71
2021/04/23 05:57:41;;;;;;;;;;;13.00;68.10;;;;;;5033666;28;75383;-67
2021/04/23 06:00:09;;;;;;;;;;;13.00;68.10;;;;;;5033530;28;74989;-66
2021/04/23 06:02:34;;;;;;;;;;;13.10;67.90;;;;;;5033622;28;75704;-67
2021/04/23 06:05:00;;;;;;;;;;;13.20;67.70;;;;;;5017780;28;78655;-69
2021/04/23 06:07:25;;;;;;;;;;;13.10;67.80;;;;;;5013434;28;76170;-71
2021/04/23 06:09:52;;;;;;;;;;;13.20;67.80;;;;;;5013504;28;75382;-72
2021/04/23 06:12:17;;;;;;;;;;;13.20;67.80;;;;;;5011690;28;75490;-60
2021/04/23 06:14:43;;;;;;;;;;;13.30;67.60;;;;;;5011693;28;75865;-61
2021/04/23 06:17:09;;;;;;;;;;;13.30;67.30;;;;;;5014825;28;75251;-59
2021/04/23 06:19:35;;;;;;;;;;;13.30;67.40;;;;;;5013065;28;78335;-66
2021/04/23 06:22:02;;;;;;;;;;;13.40;67.30;;;;;;5014561;28;76741;-58
2021/04/23 06:24:27;;;;;;;;;;;13.50;67.60;;;;;;5013138;28;75536;-58
2021/04/23 06:26:53;;;;;;;;;;;13.60;67.40;;;;;;5012861;28;78369;-58
2021/04/23 06:29:19;;;;;;;;;;;13.60;67.30;;;;;;5014589;28;75156;-67
2021/04/23 06:31:45;;;;;;;;;;;13.70;67.10;;;;;;5014488;28;74648;-59
2021/04/23 06:34:11;;;;;;;;;;;13.70;66.80;;;;;;5010262;28;78431;-60
2021/04/23 06:36:37;;;;;;;;;;;13.80;66.50;;;;;;5013603;28;75752;-60
2021/04/23 06:39:04;;;;;;;;;;;13.90;66.30;;;;;;5014576;28;74450;-59
2021/04/23 06:41:29;;;;;;;;;;;13.90;66.10;;;;;;5014030;28;74548;-59
2021/04/23 06:43:55;;;;;;;;;;;14.00;65.80;;;;;;5012551;28;78315;-61
2021/04/23 06:46:21;;;;;;;;;;;14.00;65.70;;;;;;5012784;28;75461;-63
2021/04/23 06:48:47;;;;;;;;;;;14.10;65.50;;;;;;5011643;28;75363;-62
2021/04/23 06:51:13;;;;;;;;;;;14.10;65.40;;;;;;5011806;28;75557;-61
2021/04/23 06:53:38;;;;;;;;;;;14.20;65.30;;;;;;5009182;28;75002;-60
2021/04/23 06:56:04;;;;;;;;;;;14.20;65.00;;;;;;5009566;28;77115;-59
2021/04/23 06:58:30;;;;;;;;;;;14.20;64.90;;;;;;5011777;28;75589;-62
2021/04/23 07:00:56;;;;;;;;;;;14.20;65.10;;;;;;5012345;28;74900;-66
2021/04/23 07:03:22;;;;;;;;;;;14.20;64.80;;;;;;5012451;28;76101;-63
2021/04/23 07:05:48;;;;;;;;;;;14.30;64.60;;;;;;5012572;28;74640;-60
2021/04/23 07:08:13;;;;;;;;;;;14.40;64.50;;;;;;5013277;28;75177;-63
2021/04/23 07:10:39;;;;;;;;;;;14.40;64.40;;;;;;5012691;28;75171;-59
2021/04/23 07:13:05;;;;;;;;;;;14.40;64.20;;;;;;5013739;28;75138;-59
2021/04/23 07:15:31;;;;;;;;;;;14.40;64.00;;;;;;5011791;28;76637;-62
2021/04/23 07:17:57;;;;;;;;;;;14.50;63.60;;;;;;5011126;28;75756;-60
2021/04/23 07:20:23;;;;;;;;;;;14.60;63.60;;;;;;5019217;28;75658;-61
2021/04/23 07:22:49;;;;;;;;;;;14.50;62.90;;;;;;5032452;28;75873;-66
2021/04/23 07:25:16;;;;;;;;;;;14.60;63.40;;;;;;5032215;28;74552;-61
2021/04/23 07:27:42;;;;;;;;;;;14.70;63.00;;;;;;5030287;28;77380;-64
2021/04/23 07:30:09;;;;;;;;;;;14.70;62.90;;;;;;5020517;28;75350;-60
2021/04/23 07:32:35;;;;;;;;;;;14.80;62.90;;;;;;5010900;28;75245;-62
2021/04/23 07:35:00;;;;;;;;;;;14.90;62.70;;;;;;5011854;28;74855;-60
2021/04/23 07:37:26;;;;;;;;;;;15.00;62.30;;;;;;5011500;28;75157;-63
2021/04/23 07:39:52;;;;;;;;;;;15.10;62.30;;;;;;5009847;28;75868;-61
2021/04/23 07:42:17;;;;;;;;;;;15.20;61.80;;;;;;5010401;28;74712;-60
2021/04/23 07:44:43;;;;;;;;;;;15.20;61.80;;;;;;5009149;28;76720;-63
2021/04/23 07:47:09;;;;;;;;;;;15.30;61.20;;;;;;5010549;28;75097;-60
2021/04/23 07:49:35;;;;;;;;;;;15.40;60.80;;;;;;5009257;28;78265;-60
2021/04/23 07:52:00;;;;;;;;;;;15.50;60.60;;;;;;5011113;28;75568;-59
2021/04/23 07:54:26;;;;;;;;;;;15.50;60.40;;;;;;5009610;28;75614;-60
2021/04/23 07:56:52;;;;;;;;;;;15.70;60.10;;;;;;5008962;28;77237;-60
2021/04/23 07:59:17;;;;;;;;;;;15.80;59.90;;;;;;5011385;28;75386;-65
2021/04/23 08:01:43;;;;;;;;;;;15.90;59.60;;;;;;5012512;28;75149;-60
2021/04/23 08:04:09;;;;;;;;;;;16.00;59.50;;;;;;5011408;28;77376;-63
2021/04/23 08:06:34;;;;;;;;;;;16.20;59.00;;;;;;5010641;28;77021;-60
2021/04/23 08:09:00;;;;;;;;;;;16.30;58.70;;;;;;5012678;28;75235;-59
2021/04/23 08:11:26;;;;;;;;;;;16.50;58.00;;;;;;5012500;28;75054;-63
2021/04/23 08:13:52;;;;;;;;;;;16.60;57.70;;;;;;5012526;28;75588;-61
2021/04/23 08:16:18;;;;;;;;;;;16.70;57.30;;;;;;5012259;28;75810;-65
2021/04/23 08:18:43;;;;;;;;;;;16.80;56.50;;;;;;5012500;28;74843;-71
2021/04/23 08:21:10;;;;;;;;;;;16.70;55.30;;;;;;5010681;28;77860;-62
2021/04/23 08:23:36;;;;;;;;;;;16.70;56.70;;;;;;5012777;28;74477;-63
2021/04/23 08:26:03;;;;;;;;;;;16.70;57.00;;;;;;5011403;28;76064;-60
2021/04/23 08:28:30;;;;;;;;;;;16.90;57.10;;;;;;5011300;28;77554;-63
2021/04/23 08:30:55;;;;;;;;;;;16.90;56.40;;;;;;5011936;28;74624;-66
2021/04/23 08:33:21;;;;;;;;;;;17.00;56.20;;;;;;5010656;28;77241;-61
2021/04/23 08:35:47;;;;;;;;;;;17.00;56.10;;;;;;5012045;28;75176;-60
2021/04/23 08:38:12;;;;;;;;;;;17.10;55.90;;;;;;5030697;28;75260;-75
2021/04/23 08:40:38;;;;;;;;;;;17.20;55.60;;;;;;5030638;28;74602;-64
2021/04/23 08:43:04;;;;;;;;;;;17.30;55.50;;;;;;5030384;28;78051;-60
2021/04/23 08:45:29;;;;;;;;;;;17.40;55.50;;;;;;5032239;28;74730;-59
2021/04/23 08:47:55;;;;;;;;;;;17.50;55.30;;;;;;5030227;28;77396;-59
2021/04/23 08:50:23;;;;;;;;;;;17.60;54.80;;;;;;5030192;28;78562;-60
2021/04/23 08:52:49;;;;;;;;;;;17.60;54.70;;;;;;5030699;28;77399;-63
2021/04/23 08:55:17;;;;;;;;;;;17.70;54.70;;;;;;5009746;28;75784;-63
2021/04/23 08:57:43;;;;;;;;;;;17.80;54.60;;;;;;5010762;28;75044;-72
2021/04/23 09:00:09;;;;;;;;;;;17.90;54.10;;;;;;5009866;28;74607;-62
2021/04/23 09:02:35;;;;;;;;;;;18.00;53.50;;;;;;5010830;28;75719;-66
2021/04/23 09:05:02;;;;;;;;;;;18.00;53.70;;;;;;5010180;28;75739;-64
2021/04/23 09:07:28;;;;;;;;;;;18.10;53.80;;;;;;5011896;28;74966;-66
2021/04/23 09:10:03;;;;;;;;;;;18.10;53.40;;;;;;5010263;28;75557;-68
2021/04/23 09:12:29;;;;;;;;;;;18.10;52.70;;;;;;5010345;28;75591;-71
2021/04/23 09:14:55;;;;;;;;;;;18.10;53.40;;;;;;5011269;28;75337;-67
2021/04/23 09:17:25;;;;;;;;;;;18.20;52.30;;;;;;5009171;28;75370;-71
2021/04/23 09:19:51;;;;;;;;;;;18.30;52.50;;;;;;5012045;28;75787;-70
2021/04/23 09:22:17;;;;;;;;;;;18.40;52.60;;;;;;5010164;28;76526;-65
2021/04/23 09:24:44;;;;;;;;;;;18.40;51.80;;;;;;5011790;28;75802;-72
2021/04/23 09:27:11;;;;;;;;;;;18.40;53.10;;;;;;5011019;28;76232;-63
2021/04/23 09:29:37;;;;;;;;;;;18.60;52.40;;;;;;5011872;28;74546;-65
2021/04/23 09:32:08;;;;;;;;;;;18.70;50.60;;;;;;5011860;28;75140;-60
2021/04/23 09:34:34;;;;;;;;;;;18.50;51.60;;;;;;5026936;28;76050;-66
2021/04/23 09:37:00;;;;;;;;;;;18.50;52.30;;;;;;5031090;28;75235;-60
2021/04/23 09:39:26;;;;;;;;;;;18.70;52.10;;;;;;5030148;28;76229;-63
2021/04/23 09:41:54;;;;;;;;;;;18.90;52.00;;;;;;5031720;28;74905;-64
2021/04/23 09:44:30;;;;;;;;;;;19.00;51.20;;;;;;5031723;28;75150;-60
2021/04/23 09:47:13;;;;;;;;;;;19.00;50.70;;;;;;5029481;28;77447;-60
2021/04/23 09:49:39;;;;;;;;;;;19.20;51.10;;;;;;5019109;28;75288;-64
2021/04/23 09:52:06;;;;;;;;;;;19.20;49.90;;;;;;5011517;28;74607;-69
2021/04/23 09:54:33;;;;;;;;;;;19.20;50.90;;;;;;5011762;28;75794;-66
2021/04/23 09:56:58;;;;;;;;;;;19.40;50.90;;;;;;5009509;28;76193;-66
2021/04/23 09:59:25;;;;;;;;;;;19.50;50.30;;;;;;5010340;28;74623;-69
2021/04/23 10:01:55;;;;;;;;;;;19.50;49.60;;;;;;4993970;28;75297;-65
2021/04/23 10:04:21;;;;;;;;;;;19.50;49.30;;;;;;5007518;28;77378;-72
2021/04/23 10:06:46;;;;;;;;;;;19.60;49.50;;;;;;5008281;28;75863;-72
2021/04/23 10:09:12;;;;;;;;;;;19.70;49.40;;;;;;5010737;28;75451;-71
2021/04/23 10:11:41;;;;;;;;;;;19.80;48.90;;;;;;5011007;28;75180;-66
2021/04/23 10:14:10;;;;;;;;;;;19.80;49.60;;;;;;5009132;28;76986;-73
2021/04/23 10:16:37;;;;;;;;;;;19.90;48.80;;;;;;5011063;28;75403;-66
2021/04/23 10:19:04;;;;;;;;;;;20.00;48.90;;;;;;5011324;28;75236;-62
2021/04/23 10:21:30;;;;;;;;;;;19.90;49.20;;;;;;5010750;28;75340;-74
2021/04/23 10:23:56;;;;;;;;;;;19.90;49.20;;;;;;5011282;28;75048;-62
2021/04/23 10:26:21;;;;;;;;;;;19.80;49.20;;;;;;5010293;28;75199;-60
2021/04/23 10:28:47;;;;;;;;;;;19.80;49.20;;;;;;5012095;28;75455;-60
2021/04/23 10:31:13;;;;;;;;;;;19.70;49.60;;;;;;5014834;28;76274;-60
2021/04/23 10:33:38;;;;;;;;;;;19.60;49.70;;;;;;5022753;28;75019;-59
2021/04/23 10:36:04;;;;;;;;;;;19.70;49.90;;;;;;5013975;28;75502;-59
2021/04/23 10:38:38;;;;;;;;;;;19.70;49.20;;;;;;5012407;28;76897;-61
2021/04/23 10:41:10;;;;;;;;;;;19.60;49.60;;;;;;5011534;28;76580;-59
2021/04/23 10:43:36;;;;;;;;;;;19.50;49.70;;;;;;5014023;28;75218;-60
2021/04/23 10:46:10;;;;;;;;;;;19.50;49.70;;;;;;5012559;28;77176;-60
2021/04/23 10:48:43;;;;;;;;;;;19.30;49.40;;;;;;5013660;28;75240;-69
2021/04/23 10:51:10;;;;;;;;;;;19.10;50.20;;;;;;5013380;28;75071;-64
2021/04/23 10:53:44;;;;;;;;;;;19.00;49.90;;;;;;5011901;28;75615;-68
2021/04/23 10:56:29;;;;;;;;;;;18.80;50.70;;;;;;5013765;28;75283;-68
2021/04/23 10:58:55;;;;;;;;;;;18.70;51.00;;;;;;5012807;28;76946;-72
2021/04/23 11:01:23;;;;;;;;;;;18.60;51.30;;;;;;5011991;28;74915;-71
2021/04/23 11:04:00;;;;;;;;;;;18.80;51.30;;;;;;5011948;28;77553;-69
2021/04/23 11:06:30;;;;;;;;;;;18.90;51.10;;;;;;5013722;28;74571;-69
2021/04/23 11:08:59;;;;;;;;;;;19.00;50.60;;;;;;5012482;28;75399;-75
2021/04/23 11:11:32;;;;;;;;;;;19.00;50.30;;;;;;5013834;28;75538;-72
2021/04/23 11:14:16;;;;;;;;;;;19.00;50.60;;;;;;5012042;28;77522;-73
2021/04/23 11:16:42;;;;;;;;;;;19.10;50.90;;;;;;5011266;28;75671;-64
2021/04/23 11:19:20;;;;;;;;;;;19.20;50.00;;;;;;5013494;28;75698;-65
2021/04/23 11:21:49;;;;;;;;;;;19.10;50.50;;;;;;5011970;28;77446;-63
2021/04/23 11:24:18;;;;;;;;;;;19.30;50.30;;;;;;5012915;28;75715;-60
2021/04/23 11:27:05;;;;;;;;;;;19.40;49.10;;;;;;5011701;28;78042;-63
2021/04/23 11:29:49;;;;;;;;;;;19.50;49.20;;;;;;5004331;28;77731;-66
2021/04/23 11:32:22;;;;;;;;;;;19.70;49.00;;;;;;5012185;28;78081;-60
2021/04/23 11:34:49;;;;;;;;;;;19.80;47.50;;;;;;5013388;28;75245;-64
2021/04/23 11:37:17;;;;;;;;;;;19.90;47.80;;;;;;5012185;28;75759;-68
2021/04/23 11:39:44;;;;;;;;;;;20.10;47.50;;;;;;5029242;28;76925;-60
2021/04/23 11:42:13;;;;;;;;;;;20.40;45.50;;;;;;5031445;28;76495;-66
2021/04/23 11:44:45;;;;;;;;;;;20.30;46.90;;;;;;5018130;28;76846;-65
2021/04/23 11:47:12;;;;;;;;;;;20.20;47.20;;;;;;5027957;28;76797;-64
2021/04/23 11:49:37;;;;;;;;;;;20.40;46.40;;;;;;5015697;28;77392;-62
2021/04/23 11:52:04;;;;;;;;;;;20.50;46.40;;;;;;5014978;28;75383;-71
2021/04/23 11:54:37;;;;;;;;;;;20.50;46.70;;;;;;5010759;28;74583;-67
2021/04/23 11:57:05;;;;;;;;;;;20.50;46.60;;;;;;5012703;28;75339;-62
2021/04/23 11:59:31;;;;;;;;;;;20.40;46.90;;;;;;5012711;28;75208;-66
2021/04/23 12:01:56;;;;;;;;;;;20.10;47.30;;;;;;5011510;28;77236;-65
2021/04/23 12:04:41;;;;;;;;;;;19.90;47.60;;;;;;5012768;28;74508;-63
2021/04/23 12:07:06;;;;;;;;;;;19.80;47.40;;;;;;5010271;28;77431;-64
2021/04/23 12:09:32;;;;;;;;;;;19.80;48.20;;;;;;5010536;28;77497;-62
2021/04/23 12:12:06;;;;;;;;;;;19.70;47.80;;;;;;5011759;28;75221;-61
2021/04/23 12:14:45;;;;;;;;;;;19.70;47.90;;;;;;5010976;28;75729;-61
2021/04/23 12:17:11;;;;;;;;;;;19.50;47.60;;;;;;5012842;28;75281;-59
2021/04/23 12:19:37;;;;;;;;;;;19.10;48.80;;;;;;5011058;28;77375;-65
2021/04/23 12:22:03;;;;;;;;;;;18.90;49.80;;;;;;5002906;28;75052;-68
2021/04/23 12:24:29;;;;;;;;;;;18.60;50.20;;;;;;4998945;28;75649;-62
2021/04/23 12:26:55;;;;;;;;;;;18.40;51.00;;;;;;4999248;28;77979;-61
2021/04/23 12:29:21;;;;;;;;;;;18.40;51.40;;;;;;5000684;28;76344;-63
2021/04/23 12:31:47;;;;;;;;;;;18.40;51.60;;;;;;5005209;28;75668;-64
2021/04/23 12:34:15;;;;;;;;;;;18.40;51.20;;;;;;5013234;28;75639;-62
2021/04/23 12:36:45;;;;;;;;;;;18.40;51.40;;;;;;4993263;28;75067;-65
2021/04/23 12:39:12;;;;;;;;;;;18.40;51.40;;;;;;4991270;28;75421;-65
2021/04/23 12:41:38;;;;;;;;;;;18.50;51.00;;;;;;4991071;28;77867;-66
2021/04/23 12:44:08;;;;;;;;;;;18.50;51.00;;;;;;4992615;28;75146;-60
2021/04/23 12:46:46;;;;;;;;;;;18.60;51.10;;;;;;4990949;28;76880;-63
2021/04/23 12:49:11;;;;;;;;;;;18.70;50.70;;;;;;4990872;28;77375;-63
2021/04/23 12:51:39;;;;;;;;;;;18.80;49.90;;;;;;4990096;28;76417;-62
2021/04/23 12:54:05;;;;;;;;;;;18.80;50.10;;;;;;5012246;28;75597;-65
2021/04/23 12:56:31;;;;;;;;;;;18.80;50.50;;;;;;5002314;28;75161;-60
2021/04/23 12:58:57;;;;;;;;;;;18.80;50.70;;;;;;5009512;28;75127;-61
2021/04/23 13:01:23;;;;;;;;;;;18.70;50.60;;;;;;4994839;28;77199;-62
2021/04/23 13:04:05;;;;;;;;;;;18.60;50.80;;;;;;4990494;28;76841;-61
2021/04/23 13:06:31;;;;;;;;;;;18.50;50.30;;;;;;4989546;28;74988;-63
2021/04/23 13:08:57;;;;;;;;;;;18.50;51.10;;;;;;4999969;28;75050;-62
2021/04/23 13:11:24;;;;;;;;;;;18.60;50.60;;;;;;5011728;28;75042;-60
2021/04/23 13:13:49;;;;;;;;;;;18.60;50.20;;;;;;5012063;28;74496;-62
2021/04/23 13:16:15;;;;;;;;;;;18.60;50.60;;;;;;5010616;28;75592;-61
2021/04/23 13:18:44;;;;;;;;;;;18.60;50.50;;;;;;5011729;28;75195;-65
2021/04/23 13:21:09;;;;;;;;;;;18.70;50.40;;;;;;5012160;28;75468;-61
2021/04/23 13:23:38;;;;;;;;;;;18.70;50.40;;;;;;5009227;28;77603;-63
2021/04/23 13:26:24;;;;;;;;;;;18.70;50.30;;;;;;5011908;28;75138;-64
2021/04/23 13:28:56;;;;;;;;;;;19.00;50.30;;;;;;5008818;28;76753;-62
2021/04/23 13:31:21;;;;;;;;;;;19.30;49.70;;;;;;5011264;28;75161;-63
2021/04/23 13:33:47;;;;;;;;;;;19.50;48.80;;;;;;5009427;28;75407;-61
2021/04/23 13:36:12;;;;;;;;;;;19.60;49.00;;;;;;5009561;28;75416;-62
2021/04/23 13:38:44;;;;;;;;;;;19.70;48.70;;;;;;5009711;28;77029;-65
2021/04/23 13:41:16;;;;;;;;;;;19.90;48.40;;;;;;5011347;28;74497;-64
2021/04/23 13:44:00;;;;;;;;;;;20.00;46.90;;;;;;5009509;28;76552;-63
2021/04/23 13:46:45;;;;;;;;;;;20.10;46.70;;;;;;5009560;28;78276;-68
2021/04/23 13:49:14;;;;;;;;;;;20.30;46.90;;;;;;4999654;28;75370;-63
2021/04/23 13:51:44;;;;;;;;;;;20.80;46.10;;;;;;4996879;28;77980;-64
2021/04/23 13:54:27;;;;;;;;;;;21.00;44.70;;;;;;4988205;28;77117;-65
2021/04/23 13:56:58;;;;;;;;;;;21.30;43.60;;;;;;4989985;28;74870;-63
2021/04/23 13:59:25;;;;;;;;;;;21.40;44.60;;;;;;4990460;28;74710;-69
2021/04/23 14:01:53;;;;;;;;;;;21.30;45.10;;;;;;4989498;28;77463;-62
2021/04/23 14:04:20;;;;;;;;;;;21.10;45.00;;;;;;4993010;28;76693;-63
2021/04/23 14:06:46;;;;;;;;;;;21.10;45.20;;;;;;4994876;28;75022;-62
2021/04/23 14:09:13;;;;;;;;;;;21.20;45.20;;;;;;4994119;28;74581;-62
2021/04/23 14:11:41;;;;;;;;;;;21.40;44.60;;;;;;4993867;28;75314;-64
2021/04/23 14:14:08;;;;;;;;;;;22.20;43.50;;;;;;4995682;28;75269;-65
2021/04/23 14:16:34;;;;;;;;;;;23.50;40.20;;;;;;5014743;28;75651;-64